Terminal Aerodrome Forecast
Issued by NWS

Home | Current Version | Previous Version | Graphics & Text | Print | Product List | Glossary On
Versions: 1 2 3 4 5 6 7 8 9 10 11 12 13 14 15 16 17 18 19 20 21 22 23 24 25 26
000
FTUS43 KGRB 211120
TAFRHI
TAF
KRHI 211120Z 2112/2212 32009G18KT P6SM SCT030 SCT040
      TEMPO 2112/2115 BKN030 BKN040
     FM211500 33011G18KT P6SM -SHSN BKN025
     FM211800 33011G19KT P6SM -SHSN BKN035
     FM212200 34010G17KT P6SM SCT045
     FM220100 36006KT P6SM FEW040
     FM220600 02003KT P6SM FEW029=

USA.gov is the U.S. government's official web portal to all federal, state and local government web resources and services.